Logan - 24 Hour Table
Date & TimeSolar
Radiation
(W/m²)
Wind
Speed
(mph)
Wind
Direction
(degrees)
Air
Temperature
(°F)
Relative
Humidity
(%)
Precipitation
(inches)
Barometric
Pressure
(inHg)
2020/04/09 17:00 443 9.9 192 65.2 50 0.00 29.96
2020/04/09 16:00 632 1.8 280 70.3 18 0.00 29.92
2020/04/09 15:00 771 1.5 225 68.1 17 0.00 29.93
2020/04/09 14:00 859 2.0 301 65.7 22 0.00 29.94
2020/04/09 13:00 889 2.0 307 63.4 24 0.00 29.96
2020/04/09 12:00 858 2.5 303 60.3 27 0.00 29.98
2020/04/09 11:00 770 2.6 348 56.2 32 0.00 30.00
2020/04/09 10:00 628 3.0 11 50.6 41 0.00 30.03
2020/04/09 09:00 452 1.5 295 45.8 53 0.00 30.03
2020/04/09 08:00 255 2.0 317 41.9 68 0.00 30.03
2020/04/09 07:00 56 1.7 48 36.7 62 0.00 30.04
2020/04/09 06:00 1 1.0 189 35.8 73 0.00 30.03
2020/04/09 05:00 0 0.9 282 33.7 78 0.00 30.03
2020/04/09 04:00 0 0.9 334 37.2 79 0.00 30.04
2020/04/09 03:00 0 1.0 52 38.0 69 0.00 30.04
2020/04/09 02:00 0 1.7 117 42.3 77 0.00 30.05
2020/04/09 01:00 0 2.4 149 43.9 59 0.00 30.06
2020/04/09 00:00 0 3.1 192 44.0 60 0.00 30.07
2020/04/08 23:00 0 1.4 216 48.4 62 0.00 30.07
2020/04/08 22:00 0 2.1 347 50.6 42 0.00 30.06
2020/04/08 21:00 0 2.9 332 51.3 52 0.00 30.04
2020/04/08 20:00 1 2.8 54 58.7 34 0.00 30.02
2020/04/08 19:00 62 4.3 342 59.6 38 0.00 30.01
2020/04/08 18:00 266 8.6 341 64.2 30 0.00 30.00